createdAt,value
2022-12-22T00:00:23.344Z,11.85
2022-12-22T00:03:08.835Z,11.07
2022-12-22T00:05:54.249Z,11.70
2022-12-22T00:08:39.685Z,11.35
2022-12-22T00:11:29.744Z,11.95
2022-12-22T00:14:15.313Z,12.18
2022-12-22T00:17:00.702Z,12.25
2022-12-22T00:19:47.793Z,12.98
2022-12-22T00:22:41.618Z,13.27
2022-12-22T00:25:32.815Z,14.18
2022-12-22T00:28:18.207Z,14.18
2022-12-22T00:31:04.762Z,13.50
2022-12-22T00:33:50.365Z,13.05
2022-12-22T00:36:43.113Z,13.32
2022-12-22T00:39:31.795Z,12.67
2022-12-22T00:42:17.224Z,14.60
2022-12-22T00:45:02.664Z,12.65
2022-12-22T00:47:49.321Z,13.25
2022-12-22T00:50:35.398Z,12.40
2022-12-22T00:53:22.978Z,13.27
2022-12-22T00:56:08.746Z,12.75
2022-12-22T00:58:54.551Z,12.93
2022-12-22T01:01:40.105Z,13.30
2022-12-22T01:04:29.129Z,12.48
2022-12-22T01:07:15.182Z,13.27
2022-12-22T01:10:07.554Z,13.02
2022-12-22T01:12:55.196Z,12.60
2022-12-22T01:15:40.906Z,12.20
2022-12-22T01:18:26.553Z,13.60
2022-12-22T01:21:12.310Z,13.75
2022-12-22T01:23:58.896Z,13.75
2022-12-22T01:26:44.391Z,13.20
2022-12-22T01:29:29.906Z,12.85
2022-12-22T01:32:15.020Z,12.55
2022-12-22T01:35:00.572Z,12.02
2022-12-22T01:37:46.031Z,12.13
2022-12-22T01:40:41.327Z,12.60
2022-12-22T01:43:39.335Z,12.52
2022-12-22T01:46:48.573Z,11.98
2022-12-22T01:49:42.697Z,11.50
2022-12-22T01:52:31.117Z,11.02
2022-12-22T01:55:21.749Z,10.50
2022-12-22T01:58:07.253Z,10.35
2022-12-22T02:00:52.805Z,9.95
2022-12-22T02:03:40.696Z,10.20
2022-12-22T02:06:32.190Z,10.57
2022-12-22T02:09:26.637Z,10.07
2022-12-22T02:12:29.382Z,10.10
2022-12-22T02:15:23.011Z,9.10
2022-12-22T02:21:11.549Z,9.63
2022-12-22T02:23:59.832Z,8.45
2022-12-22T02:26:52.162Z,8.23
2022-12-22T02:29:43.518Z,7.82
2022-12-22T02:32:30.229Z,8.90
2022-12-22T02:35:16.306Z,8.40
2022-12-22T02:38:10.441Z,7.97
2022-12-22T02:41:01.399Z,8.98
2022-12-22T02:43:46.562Z,8.82
2022-12-22T02:46:47.387Z,8.98
2022-12-22T02:49:40.939Z,9.75
2022-12-22T02:52:40.930Z,9.10
2022-12-22T02:55:26.946Z,9.05
2022-12-22T02:58:12.406Z,9.85
2022-12-22T03:00:58.938Z,9.80
2022-12-22T03:03:44.547Z,9.85
2022-12-22T03:06:30.055Z,9.43
2022-12-22T03:09:15.597Z,9.75
2022-12-22T03:12:01.156Z,9.68
2022-12-22T03:14:46.694Z,9.05
2022-12-22T03:17:32.239Z,9.55
2022-12-22T03:20:17.727Z,9.75
2022-12-22T03:23:03.217Z,9.27
2022-12-22T03:25:48.543Z,9.77
2022-12-22T03:28:15.356Z,10.45
2022-12-22T03:30:42.107Z,9.05
2022-12-22T03:33:08.979Z,8.48
2022-12-22T03:35:35.809Z,8.30
2022-12-22T03:38:03.557Z,8.50
2022-12-22T03:40:31.341Z,8.85
2022-12-22T03:43:16.890Z,9.32
2022-12-22T03:46:02.369Z,9.30
2022-12-22T03:48:29.414Z,8.80
2022-12-22T03:50:56.214Z,9.48
2022-12-22T03:53:22.997Z,9.20
2022-12-22T03:55:49.783Z,10.20
2022-12-22T03:58:16.543Z,11.50
2022-12-22T04:00:43.540Z,10.15
2022-12-22T04:03:10.498Z,9.38
2022-12-22T04:05:37.381Z,8.82
2022-12-22T04:08:04.303Z,9.55
2022-12-22T04:10:49.478Z,9.35
2022-12-22T04:13:16.405Z,9.70
2022-12-22T04:15:43.187Z,8.68
2022-12-22T04:18:09.939Z,7.78
2022-12-22T04:20:36.667Z,8.68
2022-12-22T04:23:03.706Z,8.10
2022-12-22T04:25:30.530Z,8.43
2022-12-22T04:28:00.498Z,8.30
2022-12-22T04:31:04.503Z,7.97
2022-12-22T04:35:57.935Z,7.47
2022-12-22T04:38:24.700Z,8.13
2022-12-22T04:40:51.445Z,7.10
2022-12-22T04:43:18.326Z,7.78
2022-12-22T04:45:45.308Z,7.60
2022-12-22T04:48:12.108Z,7.20
2022-12-22T04:50:39.315Z,6.93
2022-12-22T04:53:06.015Z,6.57
2022-12-22T04:55:32.847Z,6.32
2022-12-22T04:57:59.599Z,6.70
2022-12-22T05:00:26.409Z,6.93
2022-12-22T05:02:53.430Z,6.32
2022-12-22T05:05:20.350Z,7.22
2022-12-22T05:07:47.092Z,7.13
2022-12-22T05:10:13.907Z,7.40
2022-12-22T05:12:55.582Z,6.72
2022-12-22T05:15:27.822Z,7.15
2022-12-22T05:17:55.195Z,6.97
2022-12-22T05:20:22.233Z,7.05
2022-12-22T05:22:49.242Z,7.32
2022-12-22T05:25:16.633Z,7.38
2022-12-22T05:27:44.552Z,8.15
2022-12-22T05:30:12.260Z,8.57
2022-12-22T05:32:39.910Z,8.82
2022-12-22T05:35:07.731Z,9.35
2022-12-22T05:37:34.832Z,8.32
2022-12-22T05:40:01.656Z,8.18
2022-12-22T05:42:37.434Z,8.63
2022-12-22T05:45:21.655Z,9.13
2022-12-22T05:47:51.078Z,9.02
2022-12-22T05:50:20.501Z,9.50
2022-12-22T05:52:47.530Z,9.68
2022-12-22T05:55:14.773Z,10.55
2022-12-22T05:57:42.294Z,10.68
2022-12-22T06:00:14.614Z,12.15
2022-12-22T06:02:42.480Z,12.80
2022-12-22T06:05:11.218Z,13.18
2022-12-22T06:07:38.053Z,12.80
2022-12-22T06:10:11.958Z,13.60
2022-12-22T06:12:40.986Z,14.40
2022-12-22T06:15:10.291Z,13.25
2022-12-22T06:17:43.906Z,14.02
2022-12-22T06:20:12.332Z,14.13
2022-12-22T06:22:39.198Z,14.82
2022-12-22T06:25:06.165Z,15.63
2022-12-22T06:27:37.431Z,13.35
2022-12-22T06:30:05.926Z,13.77
2022-12-22T06:32:36.615Z,15.02
2022-12-22T06:35:04.286Z,15.55
2022-12-22T06:37:31.023Z,14.15
2022-12-22T06:39:57.711Z,14.23
2022-12-22T06:42:42.918Z,13.13
2022-12-22T06:45:10.020Z,13.23
2022-12-22T06:47:36.804Z,13.07
2022-12-22T06:50:04.159Z,14.48
2022-12-22T06:52:30.944Z,13.65
2022-12-22T06:54:57.683Z,14.80
2022-12-22T06:57:24.454Z,14.90
2022-12-22T06:59:57.307Z,16.02
2022-12-22T07:02:24.706Z,15.00
2022-12-22T07:04:51.607Z,16.00
2022-12-22T07:07:18.442Z,20.17
2022-12-22T07:09:45.198Z,17.65
2022-12-22T07:12:13.574Z,16.35
2022-12-22T07:14:40.641Z,15.40
2022-12-22T07:17:07.722Z,19.45
2022-12-22T07:19:34.853Z,21.70
2022-12-22T07:22:01.547Z,31.92
2022-12-22T07:24:29.389Z,17.83
2022-12-22T07:26:56.237Z,24.45
2022-12-22T07:29:23.183Z,25.35
2022-12-22T07:31:50.112Z,20.67
2022-12-22T07:34:17.063Z,17.45
2022-12-22T07:36:44.164Z,20.65
2022-12-22T07:39:12.808Z,21.73
2022-12-22T07:41:58.224Z,18.65
2022-12-22T07:44:25.018Z,20.63
2022-12-22T07:46:51.894Z,18.30
2022-12-22T07:49:37.057Z,17.38
2022-12-22T07:52:04.089Z,25.70
2022-12-22T07:54:34.078Z,19.50
2022-12-22T07:57:03.482Z,21.75
2022-12-22T07:59:30.255Z,20.58
2022-12-22T08:01:57.085Z,20.73
2022-12-22T08:04:23.992Z,20.90
2022-12-22T08:06:50.723Z,21.65
2022-12-22T08:09:21.424Z,22.92
2022-12-22T08:11:51.426Z,24.30
2022-12-22T08:14:18.151Z,21.55
2022-12-22T08:16:44.979Z,26.90
2022-12-22T08:19:11.830Z,23.48
2022-12-22T08:21:38.586Z,46.10
2022-12-22T08:24:05.823Z,27.00
2022-12-22T08:26:39.999Z,22.38
2022-12-22T08:29:12.741Z,28.60
2022-12-22T08:31:40.860Z,23.27
2022-12-22T08:34:10.791Z,26.17
2022-12-22T08:36:44.217Z,45.55
2022-12-22T08:39:11.870Z,24.85
2022-12-22T08:41:50.629Z,28.10
2022-12-22T08:44:30.809Z,33.38
2022-12-22T08:46:59.594Z,21.40
2022-12-22T08:49:27.091Z,25.77
2022-12-22T08:51:54.580Z,23.67
2022-12-22T08:54:21.736Z,24.45
2022-12-22T08:56:49.514Z,25.38
2022-12-22T08:59:17.167Z,26.98
2022-12-22T09:01:48.129Z,27.73
2022-12-22T09:04:20.258Z,31.10
2022-12-22T09:06:47.486Z,30.13
2022-12-22T09:09:17.719Z,28.10
2022-12-22T09:11:44.609Z,29.63
2022-12-22T09:14:12.605Z,33.30
2022-12-22T09:16:40.064Z,31.42
2022-12-22T09:19:07.721Z,33.58
2022-12-22T09:21:35.508Z,36.15
2022-12-22T09:24:04.626Z,35.35
2022-12-22T09:26:32.528Z,35.17
2022-12-22T09:28:59.361Z,35.33
2022-12-22T09:31:27.399Z,34.80
2022-12-22T09:33:54.214Z,34.63
2022-12-22T09:36:27.475Z,34.58
2022-12-22T09:38:54.428Z,35.58
2022-12-22T09:41:32.494Z,37.20
2022-12-22T09:44:05.047Z,39.65
2022-12-22T09:46:36.761Z,35.95
2022-12-22T09:49:06.587Z,33.90
2022-12-22T09:51:41.683Z,34.80
2022-12-22T09:54:11.425Z,33.13
2022-12-22T09:56:38.333Z,31.88
2022-12-22T09:59:14.372Z,31.42
2022-12-22T10:02:10.491Z,27.77
2022-12-22T10:04:46.216Z,29.45
2022-12-22T10:07:34.323Z,30.02
2022-12-22T10:10:37.348Z,32.78
2022-12-22T10:13:05.194Z,29.83
2022-12-22T10:15:37.577Z,28.10
2022-12-22T10:18:27.675Z,28.35
2022-12-22T10:21:13.587Z,25.08
2022-12-22T10:23:48.198Z,24.67
2022-12-22T10:26:28.821Z,24.15
2022-12-22T10:29:04.705Z,22.77
2022-12-22T10:31:37.020Z,22.90
2022-12-22T10:34:11.947Z,22.52
2022-12-22T10:36:39.362Z,20.70
2022-12-22T10:39:10.803Z,21.13
2022-12-22T10:41:45.309Z,21.40
2022-12-22T10:44:18.154Z,22.15
2022-12-22T10:46:50.908Z,20.70
2022-12-22T10:49:29.691Z,21.20
2022-12-22T10:52:33.135Z,20.77
2022-12-22T10:55:25.838Z,21.98
2022-12-22T10:58:13.383Z,22.20
2022-12-22T11:00:41.221Z,21.42
2022-12-22T11:03:20.643Z,21.90
2022-12-22T11:05:51.557Z,23.02
2022-12-22T11:08:20.045Z,21.73
2022-12-22T11:11:07.284Z,24.70
2022-12-22T11:14:07.483Z,19.40
2022-12-22T11:16:53.134Z,19.48
2022-12-22T11:19:38.780Z,21.75
2022-12-22T11:23:13.569Z,20.63
2022-12-22T11:25:56.535Z,22.13
2022-12-22T11:28:50.799Z,20.52
2022-12-22T11:31:20.562Z,19.50
2022-12-22T11:34:05.452Z,20.83
2022-12-22T11:36:59.680Z,20.10
2022-12-22T11:39:59.096Z,19.80
2022-12-22T11:43:03.801Z,20.30
2022-12-22T11:46:04.688Z,18.75
2022-12-22T11:48:31.453Z,16.38
2022-12-22T11:51:28.847Z,17.55
2022-12-22T11:54:10.638Z,17.27
2022-12-22T11:56:50.817Z,17.15
2022-12-22T11:59:54.741Z,15.70
2022-12-22T12:02:36.804Z,14.65
2022-12-22T12:05:19.437Z,14.38
2022-12-22T12:07:51.912Z,14.50
2022-12-22T12:10:31.967Z,13.15
2022-12-22T12:13:07.803Z,12.20
2022-12-22T12:15:49.635Z,10.95
2022-12-22T12:18:37.517Z,11.85
2022-12-22T12:21:22.402Z,10.85
2022-12-22T12:23:52.135Z,11.18
2022-12-22T12:26:30.900Z,11.07
2022-12-22T12:29:17.697Z,11.02
2022-12-22T12:32:11.903Z,10.82
2022-12-22T12:34:43.459Z,10.15
2022-12-22T12:37:37.934Z,9.98
2022-12-22T12:40:43.712Z,8.48
2022-12-22T12:43:16.416Z,9.18
2022-12-22T12:45:46.402Z,8.98
2022-12-22T12:48:40.153Z,8.93
2022-12-22T12:51:46.647Z,7.60
2022-12-22T12:54:32.013Z,6.93
2022-12-22T12:57:02.139Z,7.05
2022-12-22T12:59:41.224Z,6.47
2022-12-22T13:02:27.167Z,6.22
2022-12-22T13:05:12.148Z,6.82
2022-12-22T13:08:04.036Z,7.05
2022-12-22T13:10:31.872Z,6.50
2022-12-22T13:12:59.013Z,6.82
2022-12-22T13:15:37.889Z,6.72
2022-12-22T13:18:29.446Z,5.43
2022-12-22T13:21:34.258Z,5.80
2022-12-22T13:24:22.815Z,5.97
2022-12-22T13:26:44.285Z,5.97
2022-12-22T13:29:20.084Z,6.68
2022-12-22T13:31:50.652Z,6.63
2022-12-22T13:35:04.213Z,6.35
2022-12-22T13:37:29.555Z,6.57
2022-12-22T13:40:21.804Z,7.22
2022-12-22T13:42:56.519Z,7.15
2022-12-22T13:45:33.004Z,6.82
2022-12-22T13:48:05.121Z,6.45
2022-12-22T13:50:36.425Z,6.07
2022-12-22T13:53:07.073Z,6.45
2022-12-22T13:55:34.781Z,5.72
2022-12-22T13:58:15.596Z,6.20
2022-12-22T14:00:42.528Z,6.25
2022-12-22T14:03:41.748Z,6.07
2022-12-22T14:06:29.333Z,6.50
2022-12-22T14:09:18.884Z,6.40
2022-12-22T14:12:03.531Z,5.93
2022-12-22T14:14:37.946Z,6.10
2022-12-22T14:17:13.706Z,6.25
2022-12-22T14:19:40.887Z,6.07
2022-12-22T14:22:14.233Z,6.45
2022-12-22T14:24:54.818Z,6.25
2022-12-22T14:28:00.505Z,7.90
2022-12-22T14:30:37.790Z,14.63
2022-12-22T14:33:23.583Z,7.82
2022-12-22T14:35:50.797Z,8.07
2022-12-22T14:38:26.392Z,9.48
2022-12-22T14:40:57.567Z,9.15
2022-12-22T14:43:28.902Z,9.23
2022-12-22T14:46:22.181Z,8.43
2022-12-22T14:48:49.119Z,8.63
2022-12-22T14:51:20.131Z,8.45
2022-12-22T14:53:58.709Z,8.35
2022-12-22T14:56:27.708Z,9.02
2022-12-22T14:59:21.796Z,9.75
2022-12-22T15:02:22.701Z,10.55
2022-12-22T15:04:49.647Z,9.57
2022-12-22T15:07:54.401Z,9.68
2022-12-22T15:10:15.995Z,8.90
2022-12-22T15:12:44.091Z,10.02
2022-12-22T15:15:20.379Z,11.43
2022-12-22T15:17:52.735Z,9.70
2022-12-22T15:20:26.874Z,9.95
2022-12-22T15:22:55.243Z,10.32
2022-12-22T15:25:24.243Z,11.10
2022-12-22T15:27:54.580Z,10.98
2022-12-22T15:30:40.474Z,104.18
2022-12-22T15:33:15.665Z,12.23
2022-12-22T15:35:43.689Z,10.75
2022-12-22T15:38:19.253Z,12.00
2022-12-22T15:40:46.559Z,12.00
2022-12-22T15:43:55.125Z,13.23
2022-12-22T15:46:07.340Z,13.50
2022-12-22T15:48:36.552Z,12.68
2022-12-22T15:51:05.515Z,14.80
2022-12-22T15:53:33.421Z,13.55
2022-12-22T15:56:01.176Z,13.82
2022-12-22T15:58:33.069Z,13.50
2022-12-22T16:01:00.184Z,13.43
2022-12-22T16:03:27.121Z,13.00
2022-12-22T16:05:54.647Z,14.02
2022-12-22T16:08:29.036Z,13.43
2022-12-22T16:10:55.962Z,12.88
2022-12-22T16:13:29.743Z,13.45
2022-12-22T16:15:59.435Z,12.40
2022-12-22T16:18:26.343Z,13.48
2022-12-22T16:20:53.286Z,14.82
2022-12-22T16:23:23.872Z,15.88
2022-12-22T16:25:56.948Z,12.50
2022-12-22T16:28:25.746Z,12.50
2022-12-22T16:30:52.953Z,12.43
2022-12-22T16:33:20.209Z,13.65
2022-12-22T16:35:47.312Z,13.77
2022-12-22T16:38:18.638Z,13.30
2022-12-22T16:40:48.990Z,12.20
2022-12-22T16:43:50.469Z,14.57
2022-12-22T16:46:20.690Z,14.40
2022-12-22T16:48:56.680Z,14.48
2022-12-22T16:51:34.496Z,14.27
2022-12-22T16:54:02.293Z,12.77
2022-12-22T16:56:30.960Z,12.98
2022-12-22T16:58:57.979Z,14.77
2022-12-22T17:01:29.605Z,14.05
2022-12-22T17:03:57.706Z,15.02
2022-12-22T17:06:24.624Z,17.00
2022-12-22T17:08:51.561Z,15.27
2022-12-22T17:11:27.526Z,16.08
2022-12-22T17:14:04.713Z,16.48
2022-12-22T17:16:31.653Z,14.80
2022-12-22T17:18:58.469Z,16.00
2022-12-22T17:21:25.601Z,15.55
2022-12-22T17:23:54.693Z,16.75
2022-12-22T17:26:24.496Z,17.60
2022-12-22T17:28:52.280Z,17.58
2022-12-22T17:31:21.437Z,17.42
2022-12-22T17:33:49.029Z,17.05
2022-12-22T17:36:36.758Z,18.33
2022-12-22T17:39:04.749Z,17.23
2022-12-22T17:41:31.829Z,17.92
2022-12-22T17:43:58.631Z,18.58
2022-12-22T17:46:25.592Z,18.23
2022-12-22T17:48:52.849Z,18.92
2022-12-22T17:51:26.899Z,20.30
2022-12-22T17:53:56.613Z,20.30
2022-12-22T17:56:25.500Z,20.10
2022-12-22T17:58:53.583Z,19.95
2022-12-22T18:01:25.551Z,20.00
2022-12-22T18:03:53.505Z,20.55
2022-12-22T18:06:23.795Z,23.15
2022-12-22T18:08:54.918Z,22.90
2022-12-22T18:11:22.800Z,23.77
2022-12-22T18:13:50.176Z,24.33
2022-12-22T18:16:20.365Z,24.52
2022-12-22T18:18:47.783Z,23.95
2022-12-22T18:21:20.688Z,24.52
2022-12-22T18:23:50.578Z,26.67
2022-12-22T18:26:28.943Z,26.38
2022-12-22T18:28:56.421Z,26.40
2022-12-22T18:31:24.324Z,25.85
2022-12-22T18:33:51.721Z,24.50
2022-12-22T18:36:32.955Z,26.00
2022-12-22T18:39:01.388Z,26.13
2022-12-22T18:41:32.070Z,27.80
2022-12-22T18:43:58.848Z,28.73
2022-12-22T18:46:25.714Z,27.25
2022-12-22T18:48:52.637Z,28.60
2022-12-22T18:51:25.285Z,27.88
2022-12-22T18:53:54.064Z,24.98
2022-12-22T18:56:21.046Z,24.52
2022-12-22T18:58:48.215Z,24.20
2022-12-22T19:01:25.131Z,21.98
2022-12-22T19:03:55.564Z,22.25
2022-12-22T19:06:23.408Z,22.67
2022-12-22T19:08:50.841Z,21.77
2022-12-22T19:11:21.543Z,20.17
2022-12-22T19:13:51.182Z,20.70
2022-12-22T19:16:22.566Z,21.77
2022-12-22T19:18:49.417Z,20.75
2022-12-22T19:21:17.520Z,21.83
2022-12-22T19:23:44.599Z,21.00
2022-12-22T19:26:29.684Z,21.17
2022-12-22T19:29:03.181Z,19.63
2022-12-22T19:31:35.483Z,22.85
2022-12-22T19:34:06.392Z,20.77
2022-12-22T19:36:34.339Z,21.35
2022-12-22T19:39:05.060Z,20.02
2022-12-22T19:41:47.969Z,20.60
2022-12-22T19:44:26.827Z,20.83
2022-12-22T19:46:55.302Z,20.80
2022-12-22T19:49:25.048Z,21.42
2022-12-22T19:51:51.958Z,20.40
2022-12-22T19:54:22.002Z,21.67
2022-12-22T19:56:52.437Z,19.92
2022-12-22T19:59:43.095Z,22.95
2022-12-22T20:02:27.036Z,23.80
2022-12-22T20:04:54.970Z,23.48
2022-12-22T20:07:23.873Z,22.75
2022-12-22T20:09:51.482Z,24.15
2022-12-22T20:12:37.718Z,24.45
2022-12-22T20:15:27.499Z,24.88
2022-12-22T20:17:55.953Z,22.92
2022-12-22T20:20:33.402Z,22.67
2022-12-22T20:23:06.295Z,25.33
2022-12-22T20:25:41.102Z,23.23
2022-12-22T20:28:20.485Z,22.35
2022-12-22T20:30:47.806Z,23.30
2022-12-22T20:33:16.245Z,24.35
2022-12-22T20:35:43.809Z,23.00
2022-12-22T20:38:27.082Z,23.10
2022-12-22T20:40:54.820Z,24.33
2022-12-22T20:43:24.415Z,23.48
2022-12-22T20:45:54.409Z,21.35
2022-12-22T20:48:34.904Z,21.48
2022-12-22T20:51:03.293Z,21.30
2022-12-22T20:53:30.765Z,24.08
2022-12-22T20:55:57.936Z,22.35
2022-12-22T20:58:27.628Z,22.65
2022-12-22T21:00:57.255Z,23.02
2022-12-22T21:03:27.620Z,21.42
2022-12-22T21:05:54.861Z,20.90
2022-12-22T21:08:24.500Z,18.83
2022-12-22T21:10:53.327Z,17.85
2022-12-22T21:13:21.055Z,17.55
2022-12-22T21:15:51.201Z,19.27
2022-12-22T21:18:23.759Z,18.13
2022-12-22T21:20:51.738Z,20.75
2022-12-22T21:23:18.519Z,21.35
2022-12-22T21:25:48.966Z,19.95
2022-12-22T21:28:28.944Z,19.60
2022-12-22T21:30:55.752Z,19.17
2022-12-22T21:33:23.476Z,20.90
2022-12-22T21:35:51.442Z,19.33
2022-12-22T21:38:20.308Z,18.35
2022-12-22T21:40:47.064Z,18.58
2022-12-22T21:43:15.085Z,18.70
2022-12-22T21:45:43.517Z,18.23
2022-12-22T21:48:16.768Z,19.63
2022-12-22T21:50:43.619Z,18.60
2022-12-22T21:53:18.075Z,19.58
2022-12-22T21:55:49.134Z,18.23
2022-12-22T21:58:16.028Z,19.27
2022-12-22T22:00:47.154Z,20.10
2022-12-22T22:03:15.403Z,18.70
2022-12-22T22:05:43.101Z,17.85
2022-12-22T22:08:12.169Z,17.30
2022-12-22T22:10:43.751Z,17.90
2022-12-22T22:13:15.786Z,16.95
2022-12-22T22:15:43.334Z,18.23
2022-12-22T22:18:17.917Z,17.98
2022-12-22T22:20:44.864Z,17.38
2022-12-22T22:23:13.974Z,16.88
2022-12-22T22:25:41.219Z,18.20
2022-12-22T22:28:11.175Z,19.08
2022-12-22T22:30:40.379Z,18.33
2022-12-22T22:33:07.131Z,17.60
2022-12-22T22:35:33.902Z,19.65
2022-12-22T22:38:00.658Z,18.15
2022-12-22T22:40:27.448Z,18.30
2022-12-22T22:42:54.245Z,19.10
2022-12-22T22:45:23.677Z,20.35
2022-12-22T22:47:52.160Z,20.10
2022-12-22T22:50:21.173Z,19.67
2022-12-22T22:52:48.685Z,19.40
2022-12-22T22:55:15.889Z,20.77
2022-12-22T22:57:43.136Z,20.25
2022-12-22T23:00:12.746Z,21.08
2022-12-22T23:02:39.890Z,19.58
2022-12-22T23:05:07.608Z,20.60
2022-12-22T23:07:35.613Z,20.63
2022-12-22T23:10:03.059Z,20.58
2022-12-22T23:12:29.855Z,20.80
2022-12-22T23:14:56.751Z,20.33
2022-12-22T23:17:23.714Z,20.30
2022-12-22T23:19:50.465Z,18.75
2022-12-22T23:22:17.269Z,20.08
2022-12-22T23:24:44.108Z,19.13
2022-12-22T23:27:11.236Z,19.30
2022-12-22T23:29:38.205Z,19.63
2022-12-22T23:32:05.583Z,20.63
2022-12-22T23:34:32.888Z,19.20
2022-12-22T23:36:59.650Z,20.05
2022-12-22T23:39:26.411Z,17.65
2022-12-22T23:41:53.175Z,18.52
2022-12-22T23:44:19.940Z,19.02
2022-12-22T23:46:46.787Z,20.45
2022-12-22T23:49:14.134Z,22.23
2022-12-22T23:51:41.124Z,34.10
2022-12-22T23:54:07.976Z,22.02
2022-12-22T23:56:34.762Z,22.40
2022-12-22T23:59:01.542Z,23.77
